Time;durP1;ratioP1;P1;durP2;ratioP2;P2;SDS_P1;SDS_P2;PMS_P1;PMS_P2;Temp;Humidity;BMP_temperature;BMP_pressure;BME280_temperature;BME280_humidity;BME280_pressure;Samples;Min_cycle;Max_cycle;Signal;HPM_P1;HPM_P2
2022/10/17 00:01:47;;;;;;;1.30;1.30;;;20.20;73.50;;;;;;5014637;28;43539;-71
2022/10/17 00:04:15;;;;;;;1.10;1.10;;;20.10;73.50;;;;;;5014352;28;43604;-71
2022/10/17 00:06:43;;;;;;;1.20;1.20;;;20.10;74.10;;;;;;5010976;28;43722;-71
2022/10/17 00:09:11;;;;;;;1.37;1.37;;;20.10;74.20;;;;;;5015714;28;43520;-71
2022/10/17 00:11:39;;;;;;;0.93;0.93;;;20.10;74.00;;;;;;5012647;28;43372;-71
2022/10/17 00:14:06;;;;;;;1.30;1.30;;;20.10;73.90;;;;;;5010083;28;43845;-72
2022/10/17 00:16:36;;;;;;;1.10;1.10;;;20.00;73.90;;;;;;5013977;28;45490;-71
2022/10/17 00:19:04;;;;;;;1.00;1.00;;;20.00;74.40;;;;;;5020562;28;43427;-71
2022/10/17 00:21:32;;;;;;;1.10;1.10;;;20.10;74.40;;;;;;5013984;28;43795;-72
2022/10/17 00:24:00;;;;;;;1.03;1.03;;;20.10;74.00;;;;;;5011617;28;43945;-71
2022/10/17 00:26:29;;;;;;;1.07;1.07;;;20.30;73.50;;;;;;5009432;28;44577;-72
2022/10/17 00:28:57;;;;;;;1.30;1.30;;;20.40;73.00;;;;;;5009248;28;43783;-72
2022/10/17 00:31:25;;;;;;;1.00;1.00;;;20.50;72.90;;;;;;5011439;28;43811;-71
2022/10/17 00:33:54;;;;;;;1.20;1.20;;;20.40;72.80;;;;;;5014929;28;43870;-72
2022/10/17 00:36:23;;;;;;;1.00;1.00;;;20.40;73.00;;;;;;5013750;28;43304;-72
2022/10/17 00:38:52;;;;;;;1.10;1.10;;;20.30;73.10;;;;;;5015737;28;43377;-72
2022/10/17 00:41:21;;;;;;;1.10;1.10;;;20.20;73.70;;;;;;5011603;28;43430;-72
2022/10/17 00:43:51;;;;;;;1.10;1.10;;;20.20;73.80;;;;;;5011427;28;44126;-73
2022/10/17 00:46:19;;;;;;;1.10;1.10;;;20.20;73.80;;;;;;5012896;28;43829;-72
2022/10/17 00:48:47;;;;;;;1.00;1.00;;;20.10;73.60;;;;;;5010550;28;43387;-71
2022/10/17 00:51:16;;;;;;;1.10;1.10;;;20.10;73.80;;;;;;5005928;28;43561;-72
2022/10/17 00:53:44;;;;;;;1.10;1.10;;;20.00;74.20;;;;;;5014953;28;43666;-72
2022/10/17 00:56:12;;;;;;;1.17;1.17;;;20.10;74.20;;;;;;5009017;28;43905;-71
2022/10/17 00:58:39;;;;;;;1.20;1.20;;;20.10;74.10;;;;;;5023241;28;43460;-72
2022/10/17 01:01:07;;;;;;;1.10;1.10;;;20.00;74.00;;;;;;5016520;28;44274;-72
2022/10/17 01:03:35;;;;;;;1.00;1.00;;;20.00;74.00;;;;;;5010979;28;45552;-72
2022/10/17 01:06:03;;;;;;;1.07;1.07;;;20.00;74.60;;;;;;5011629;28;45053;-71
2022/10/17 01:08:33;;;;;;;1.17;1.17;;;20.00;74.40;;;;;;5009839;28;43454;-70
2022/10/17 01:11:03;;;;;;;0.93;0.93;;;20.10;74.00;;;;;;5014434;28;43538;-72
2022/10/17 01:13:35;;;;;;;1.00;1.00;;;20.30;73.50;;;;;;5021539;28;43939;-71
2022/10/17 01:16:06;;;;;;;1.17;1.17;;;20.40;72.90;;;;;;5008144;28;44818;-72
2022/10/17 01:18:44;;;;;;;1.20;1.20;;;20.50;72.80;;;;;;5014085;28;43992;-71
2022/10/17 01:21:26;;;;;;;1.07;1.07;;;20.40;72.70;;;;;;5014724;28;43441;-70
2022/10/17 01:24:14;;;;;;;1.20;1.20;;;20.40;72.90;;;;;;5006014;28;46293;-71
2022/10/17 01:26:53;;;;;;;0.97;0.97;;;20.30;73.20;;;;;;5014259;28;44652;-69
2022/10/17 01:29:43;;;;;;;1.00;1.00;;;20.20;73.70;;;;;;5012241;28;43974;-71
2022/10/17 01:32:13;;;;;;;1.00;1.00;;;20.20;73.70;;;;;;5008182;28;43959;-71
2022/10/17 01:34:44;;;;;;;1.00;1.00;;;20.20;73.60;;;;;;5014512;28;43909;-70
2022/10/17 01:37:15;;;;;;;1.00;1.00;;;20.10;74.40;;;;;;5012828;28;45164;-72
2022/10/17 01:39:46;;;;;;;0.90;0.90;;;20.00;74.00;;;;;;5014148;28;43535;-71
2022/10/17 01:42:16;;;;;;;1.20;1.20;;;20.00;74.20;;;;;;5028558;28;43539;-70
2022/10/17 01:44:47;;;;;;;1.20;1.20;;;20.00;74.20;;;;;;5014144;28;44271;-70
2022/10/17 01:47:18;;;;;;;1.03;1.03;;;20.00;74.00;;;;;;5015751;28;44690;-70
2022/10/17 01:49:46;;;;;;;1.07;1.07;;;20.00;74.00;;;;;;5017389;28;43445;-71
2022/10/17 01:52:15;;;;;;;0.90;0.90;;;20.00;74.30;;;;;;5015135;28;43419;-71
2022/10/17 01:54:45;;;;;;;0.90;0.90;;;20.00;74.60;;;;;;5027130;28;45846;-71
2022/10/17 01:57:15;;;;;;;0.90;0.90;;;20.00;74.30;;;;;;5011344;28;44511;-71
2022/10/17 01:59:45;;;;;;;1.00;1.00;;;20.20;74.00;;;;;;5016361;28;43352;-71
2022/10/17 02:02:13;;;;;;;0.90;0.90;;;20.30;73.30;;;;;;5014191;28;44116;-70
2022/10/17 02:04:42;;;;;;;1.00;1.00;;;20.40;72.90;;;;;;5015753;28;43587;-70
2022/10/17 02:07:11;;;;;;;1.00;1.00;;;20.40;72.80;;;;;;5017020;28;43424;-71
2022/10/17 02:09:39;;;;;;;0.90;0.90;;;20.40;72.90;;;;;;5010323;28;43400;-70
2022/10/17 02:12:15;;;;;;;1.03;1.03;;;20.30;73.00;;;;;;5017810;28;43419;-71
2022/10/17 02:14:50;;;;;;;1.10;1.10;;;20.20;73.20;;;;;;5011550;28;44015;-70
2022/10/17 02:17:21;;;;;;;0.80;0.80;;;20.20;73.80;;;;;;5010261;28;44537;-70
2022/10/17 02:19:55;;;;;;;1.00;1.00;;;20.20;73.80;;;;;;5011569;28;43470;-71
2022/10/17 02:22:28;;;;;;;1.00;1.00;;;20.10;73.70;;;;;;5017661;28;43497;-70
2022/10/17 02:25:00;;;;;;;1.00;1.00;;;20.10;73.70;;;;;;5013175;28;43599;-71
2022/10/17 02:27:33;;;;;;;0.93;0.93;;;20.00;73.90;;;;;;5022460;28;43522;-70
2022/10/17 02:30:05;;;;;;;1.10;1.10;;;20.00;74.40;;;;;;5009328;28;43474;-71
2022/10/17 02:32:36;;;;;;;1.00;1.00;;;20.00;74.30;;;;;;5014738;28;43600;-71
2022/10/17 02:35:07;;;;;;;1.00;1.00;;;20.20;73.90;;;;;;5012944;28;45554;-71
2022/10/17 02:37:35;;;;;;;0.97;0.97;;;20.20;74.30;;;;;;5011929;28;43372;-71
2022/10/17 02:40:03;;;;;;;1.00;1.00;;;20.20;73.50;;;;;;5016840;28;43389;-71
2022/10/17 02:42:31;;;;;;;1.00;1.00;;;20.20;73.60;;;;;;4996114;28;43922;-70
2022/10/17 02:45:00;;;;;;;1.00;1.00;;;20.20;73.70;;;;;;5017899;28;43859;-71
2022/10/17 02:47:31;;;;;;;1.00;1.00;;;20.20;73.70;;;;;;5013005;28;44570;-71
2022/10/17 02:49:59;;;;;;;1.00;1.00;;;20.20;73.60;;;;;;5008420;28;43769;-71
2022/10/17 02:52:31;;;;;;;1.10;1.10;;;20.10;73.60;;;;;;5010316;28;43470;-71
2022/10/17 02:55:03;;;;;;;1.00;1.00;;;20.10;73.90;;;;;;5014599;28;44037;-71
2022/10/17 02:57:33;;;;;;;0.90;0.90;;;20.00;74.20;;;;;;5013557;28;43547;-70
2022/10/17 03:00:01;;;;;;;0.97;0.97;;;20.00;74.20;;;;;;5022492;28;44066;-71
2022/10/17 03:02:29;;;;;;;0.90;0.90;;;20.00;74.00;;;;;;5009978;28;44263;-72
2022/10/17 03:04:58;;;;;;;1.03;1.03;;;20.00;74.00;;;;;;5017031;28;43963;-71
2022/10/17 03:07:26;;;;;;;1.10;1.10;;;20.00;74.20;;;;;;5013193;28;44567;-71
2022/10/17 03:09:57;;;;;;;1.17;1.17;;;19.90;74.50;;;;;;5014367;28;43996;-71
2022/10/17 03:12:25;;;;;;;1.10;1.10;;;20.00;74.30;;;;;;5015627;28;43517;-71
2022/10/17 03:14:53;;;;;;;1.10;1.10;;;20.10;73.90;;;;;;5013456;28;43813;-69
2022/10/17 03:17:21;;;;;;;1.00;1.00;;;20.30;73.30;;;;;;5010091;28;44710;-71
2022/10/17 03:19:49;;;;;;;0.90;0.90;;;20.40;72.80;;;;;;5017558;28;43436;-70
2022/10/17 03:22:17;;;;;;;0.93;0.93;;;20.40;72.70;;;;;;5009579;28;43469;-72
2022/10/17 03:24:47;;;;;;;0.90;0.90;;;20.40;72.80;;;;;;5007998;28;45689;-70
2022/10/17 03:27:16;;;;;;;1.00;1.00;;;20.30;72.90;;;;;;5018235;28;43372;-70
2022/10/17 03:29:45;;;;;;;0.90;0.90;;;20.20;73.10;;;;;;5014165;28;44028;-70
2022/10/17 03:32:15;;;;;;;0.93;0.93;;;20.20;73.70;;;;;;5017019;28;43567;-71
2022/10/17 03:34:43;;;;;;;0.90;0.90;;;20.10;73.70;;;;;;5014861;28;45387;-70
2022/10/17 03:37:11;;;;;;;1.00;1.00;;;20.10;73.70;;;;;;5010571;28;44046;-69
2022/10/17 03:39:41;;;;;;;0.97;0.97;;;20.10;73.70;;;;;;5007481;28;43408;-73
2022/10/17 03:42:09;;;;;;;1.10;1.10;;;20.00;73.80;;;;;;5010397;28;43472;-72
2022/10/17 03:44:38;;;;;;;1.00;1.00;;;20.00;74.30;;;;;;5009323;28;43921;-69
2022/10/17 03:47:06;;;;;;;1.10;1.10;;;20.00;74.30;;;;;;5014122;28;43788;-71
2022/10/17 03:49:39;;;;;;;0.90;0.90;;;20.00;74.10;;;;;;5008263;28;43484;-71
2022/10/17 03:52:11;;;;;;;0.90;0.90;;;20.00;74.00;;;;;;5021735;28;43546;-71
2022/10/17 03:54:39;;;;;;;1.00;1.00;;;19.90;74.10;;;;;;5016532;28;45417;-72
2022/10/17 03:57:07;;;;;;;1.10;1.10;;;19.90;74.60;;;;;;5017517;28;43462;-72
2022/10/17 03:59:35;;;;;;;1.07;1.07;;;20.00;74.40;;;;;;5013230;28;43468;-70
2022/10/17 04:02:10;;;;;;;0.90;0.90;;;20.10;73.90;;;;;;5008002;28;43365;-71
2022/10/17 04:04:38;;;;;;;0.90;0.90;;;20.30;73.40;;;;;;5011639;28;43939;-69
2022/10/17 04:07:07;;;;;;;1.00;1.00;;;20.40;73.00;;;;;;5007766;28;44564;-71
2022/10/17 04:09:38;;;;;;;1.10;1.10;;;20.40;72.80;;;;;;5007541;28;43396;-70
2022/10/17 04:12:11;;;;;;;0.90;0.90;;;20.30;72.80;;;;;;5011128;28;43513;-71
2022/10/17 04:14:39;;;;;;;0.90;0.90;;;20.30;73.10;;;;;;5015040;28;43687;-70
2022/10/17 04:17:09;;;;;;;1.10;1.10;;;20.10;73.30;;;;;;5016848;28;44378;-71
2022/10/17 04:19:38;;;;;;;1.10;1.10;;;20.10;73.70;;;;;;5008537;28;43429;-70
2022/10/17 04:22:07;;;;;;;0.90;0.90;;;20.10;73.70;;;;;;5006615;28;43532;-70
2022/10/17 04:24:37;;;;;;;0.90;0.90;;;20.10;73.70;;;;;;5011293;28;45648;-71
2022/10/17 04:27:31;;;;;;;0.90;0.90;;;20.00;73.70;;;;;;5001235;28;43566;-69
2022/10/17 04:30:00;;;;;;;0.80;0.80;;;20.00;74.20;;;;;;5007453;28;43418;-70
2022/10/17 04:32:32;;;;;;;0.80;0.80;;;20.00;74.30;;;;;;5007968;28;43592;-71
2022/10/17 04:35:09;;;;;;;0.90;0.90;;;20.10;74.00;;;;;;5007016;28;45053;-71
2022/10/17 04:37:39;;;;;;;1.00;1.00;;;20.20;73.70;;;;;;5009218;28;43401;-71
2022/10/17 04:40:13;;;;;;;1.00;1.00;;;20.20;73.40;;;;;;5010345;28;43347;-72
2022/10/17 04:42:42;;;;;;;0.90;0.90;;;20.20;73.40;;;;;;5007546;28;43537;-71
2022/10/17 04:45:12;;;;;;;1.03;1.03;;;20.20;73.70;;;;;;5012303;28;44692;-70
2022/10/17 04:47:42;;;;;;;0.90;0.90;;;20.20;73.50;;;;;;5017165;28;44528;-70
2022/10/17 04:50:10;;;;;;;1.00;1.00;;;20.20;73.50;;;;;;5015451;28;44093;-70
2022/10/17 04:52:40;;;;;;;0.90;0.90;;;20.10;73.50;;;;;;5008590;28;43363;-70
2022/10/17 04:55:09;;;;;;;1.00;1.00;;;20.10;73.60;;;;;;5015075;28;43910;-71
2022/10/17 04:57:38;;;;;;;0.90;0.90;;;20.00;74.00;;;;;;5014278;28;43368;-70
2022/10/17 05:00:14;;;;;;;0.80;0.80;;;20.00;74.00;;;;;;5006541;28;43441;-70
2022/10/17 05:02:53;;;;;;;0.90;0.90;;;20.00;74.00;;;;;;5020787;28;43491;-73
2022/10/17 05:05:21;;;;;;;0.90;0.90;;;20.00;73.90;;;;;;5006887;28;45377;-70
2022/10/17 05:07:52;;;;;;;1.00;1.00;;;20.00;74.00;;;;;;5014323;28;43426;-71
2022/10/17 05:10:24;;;;;;;1.00;1.00;;;19.90;74.40;;;;;;5007959;28;43399;-71
2022/10/17 05:12:53;;;;;;;0.90;0.90;;;20.00;74.40;;;;;;5016610;28;43552;-70
2022/10/17 05:15:23;;;;;;;1.00;1.00;;;20.10;74.00;;;;;;5009174;28;45493;-72
2022/10/17 05:17:56;;;;;;;0.90;0.90;;;20.30;73.50;;;;;;5012703;28;44045;-70
2022/10/17 05:20:26;;;;;;;0.87;0.87;;;20.40;73.00;;;;;;5014216;28;43392;-70
2022/10/17 05:22:54;;;;;;;1.00;1.00;;;20.40;72.70;;;;;;5016511;28;43544;-71
2022/10/17 05:25:23;;;;;;;1.00;1.00;;;20.40;72.80;;;;;;5014556;28;43919;-70
2022/10/17 05:27:51;;;;;;;0.90;0.90;;;20.30;72.90;;;;;;5014326;28;43509;-70
2022/10/17 05:30:19;;;;;;;0.80;0.80;;;20.20;73.00;;;;;;5011481;28;43410;-71
2022/10/17 05:32:52;;;;;;;0.90;0.90;;;20.20;73.60;;;;;;5013921;28;44209;-73
2022/10/17 05:35:21;;;;;;;1.00;1.00;;;20.10;73.70;;;;;;5008582;28;46046;-71
2022/10/17 05:37:49;;;;;;;0.90;0.90;;;20.10;73.70;;;;;;5010256;28;45048;-71
2022/10/17 05:40:18;;;;;;;0.97;0.97;;;20.10;73.70;;;;;;5017321;28;43464;-70
2022/10/17 05:42:47;;;;;;;0.80;0.80;;;20.00;73.70;;;;;;5013790;28;43472;-71
2022/10/17 05:45:16;;;;;;;1.10;1.10;;;20.00;74.10;;;;;;5012057;28;45497;-70
2022/10/17 05:47:46;;;;;;;1.00;1.00;;;20.00;74.30;;;;;;5012902;28;43477;-70
2022/10/17 05:50:14;;;;;;;1.00;1.00;;;20.00;74.20;;;;;;5013132;28;43328;-71
2022/10/17 05:53:01;;;;;;;1.20;1.20;;;20.00;74.00;;;;;;5019127;28;44024;-71
2022/10/17 05:55:29;;;;;;;1.13;1.13;;;20.00;74.00;;;;;;5021576;28;45642;-71
2022/10/17 05:57:59;;;;;;;0.90;0.90;;;19.90;74.40;;;;;;5017202;28;44607;-70
2022/10/17 06:00:33;;;;;;;1.10;1.10;;;20.00;74.60;;;;;;5011850;28;43791;-71
2022/10/17 06:03:02;;;;;;;0.90;0.90;;;20.10;74.10;;;;;;5020963;28;43445;-70
2022/10/17 06:05:30;;;;;;;1.00;1.00;;;20.20;73.50;;;;;;5026909;28;44726;-71
2022/10/17 06:07:58;;;;;;;1.00;1.00;;;20.40;73.00;;;;;;5019516;28;43464;-70
2022/10/17 06:10:32;;;;;;;1.00;1.00;;;20.40;72.80;;;;;;5021845;28;43389;-70
2022/10/17 06:13:00;;;;;;;1.03;1.03;;;20.40;72.70;;;;;;5011054;28;43536;-72
2022/10/17 06:15:29;;;;;;;1.00;1.00;;;20.30;72.90;;;;;;5008454;28;45939;-71
2022/10/17 06:18:02;;;;;;;1.07;1.07;;;20.20;73.00;;;;;;5014184;28;44501;-70
2022/10/17 06:20:30;;;;;;;0.90;0.90;;;20.20;73.50;;;;;;5022286;28;43971;-71
2022/10/17 06:22:58;;;;;;;1.00;1.00;;;20.10;73.80;;;;;;5017047;28;43525;-70
2022/10/17 06:25:48;;;;;;;1.10;1.10;;;20.10;73.80;;;;;;5013264;28;44101;-69
2022/10/17 06:28:16;;;;;;;0.90;0.90;;;20.10;73.70;;;;;;5019215;28;43483;-71
2022/10/17 06:30:44;;;;;;;1.10;1.10;;;20.00;73.70;;;;;;5016248;28;43786;-71
2022/10/17 06:33:12;;;;;;;1.00;1.00;;;20.00;74.10;;;;;;5011659;28;43551;-71
2022/10/17 06:35:40;;;;;;;1.20;1.20;;;20.00;74.20;;;;;;5023592;28;43857;-70
2022/10/17 06:38:08;;;;;;;1.17;1.17;;;20.00;74.10;;;;;;5018347;28;44739;-71
2022/10/17 06:40:37;;;;;;;1.10;1.10;;;20.00;74.00;;;;;;5009301;28;43424;-71
2022/10/17 06:43:06;;;;;;;1.00;1.00;;;20.00;74.00;;;;;;5010443;28;43463;-70
2022/10/17 06:45:55;;;;;;;0.80;0.80;;;20.00;74.10;;;;;;5014356;28;44887;-71
2022/10/17 06:48:31;;;;;;;1.00;1.00;;;19.90;74.40;;;;;;5020894;28;44986;-71
2022/10/17 06:51:11;;;;;;;1.00;1.00;;;20.00;74.20;;;;;;5023692;28;43500;-72
2022/10/17 06:53:52;;;;;;;1.00;1.00;;;20.20;73.70;;;;;;5019480;28;43491;-71
2022/10/17 06:56:48;;;;;;;0.90;0.90;;;20.30;73.40;;;;;;5011338;28;44103;-71
2022/10/17 06:59:32;;;;;;;1.00;1.00;;;20.20;73.20;;;;;;5016693;28;43420;-70
2022/10/17 07:02:12;;;;;;;1.00;1.00;;;20.20;73.50;;;;;;5012760;28;43953;-72
2022/10/17 07:04:42;;;;;;;1.03;1.03;;;20.20;73.40;;;;;;5015641;28;43591;-72
2022/10/17 07:07:12;;;;;;;0.93;0.93;;;20.20;73.50;;;;;;5019402;28;44053;-71
2022/10/17 07:09:40;;;;;;;0.90;0.90;;;20.20;73.40;;;;;;5013836;28;44357;-70
2022/10/17 07:12:11;;;;;;;1.00;1.00;;;20.10;73.40;;;;;;5021240;28;43417;-71
2022/10/17 07:14:46;;;;;;;1.17;1.17;;;20.10;73.70;;;;;;5016517;28;43544;-70
2022/10/17 07:17:14;;;;;;;1.10;1.10;;;20.10;74.10;;;;;;5013768;28;44718;-71
2022/10/17 07:19:43;;;;;;;1.00;1.00;;;20.10;73.80;;;;;;5023968;28;43394;-70
2022/10/17 07:22:12;;;;;;;0.90;0.90;;;20.20;73.50;;;;;;5012477;28;43567;-70
2022/10/17 07:24:43;;;;;;;1.00;1.00;;;20.20;73.40;;;;;;5010263;28;43554;-70
2022/10/17 07:27:17;;;;;;;1.00;1.00;;;20.20;73.30;;;;;;5016718;28;43856;-70
2022/10/17 07:29:48;;;;;;;1.00;1.00;;;20.20;73.60;;;;;;5009786;28;43962;-71
2022/10/17 07:32:27;;;;;;;0.83;0.83;;;20.20;73.50;;;;;;5015496;28;43300;-70
2022/10/17 07:34:56;;;;;;;1.00;1.00;;;20.20;73.50;;;;;;5010647;28;43450;-71
2022/10/17 07:37:24;;;;;;;1.00;1.00;;;20.20;73.50;;;;;;5012902;28;45369;-69
2022/10/17 07:39:56;;;;;;;0.97;0.97;;;20.10;73.50;;;;;;5014525;28;43429;-71
2022/10/17 07:42:24;;;;;;;1.10;1.10;;;20.10;74.10;;;;;;5007575;28;43994;-70
2022/10/17 07:44:54;;;;;;;0.90;0.90;;;20.10;74.10;;;;;;5016245;28;44056;-72
2022/10/17 07:47:24;;;;;;;1.00;1.00;;;20.10;73.90;;;;;;5018121;28;44128;-72
2022/10/17 07:49:53;;;;;;;1.00;1.00;;;20.00;73.80;;;;;;5016271;28;43338;-71
2022/10/17 07:52:21;;;;;;;0.90;0.90;;;20.00;73.80;;;;;;5016157;28;43422;-71
2022/10/17 07:54:49;;;;;;;1.00;1.00;;;20.00;74.30;;;;;;5022080;28;43451;-69
2022/10/17 07:57:17;;;;;;;0.97;0.97;;;20.00;74.30;;;;;;5021511;28;46147;-71
2022/10/17 07:59:46;;;;;;;1.00;1.00;;;20.10;74.00;;;;;;5015099;28;45149;-71
2022/10/17 08:02:18;;;;;;;1.10;1.10;;;20.20;73.50;;;;;;5024853;28;43438;-71
2022/10/17 08:04:46;;;;;;;0.87;0.87;;;20.40;73.00;;;;;;5020803;28;43463;-71
2022/10/17 08:07:15;;;;;;;1.10;1.10;;;20.40;72.70;;;;;;5015024;28;43607;-71
2022/10/17 08:09:51;;;;;;;1.10;1.10;;;20.40;73.50;;;;;;5017700;28;43352;-72
2022/10/17 08:12:19;;;;;;;0.90;0.90;;;20.30;72.80;;;;;;5018954;28;43386;-70
2022/10/17 08:14:47;;;;;;;1.00;1.00;;;20.20;72.90;;;;;;5017655;28;43434;-70
2022/10/17 08:17:16;;;;;;;0.90;0.90;;;20.20;73.40;;;;;;5017964;28;43920;-72
2022/10/17 08:19:44;;;;;;;0.90;0.90;;;20.10;73.60;;;;;;5021173;28;43434;-70
2022/10/17 08:22:12;;;;;;;0.90;0.90;;;20.20;73.70;;;;;;5012207;28;43550;-71
2022/10/17 08:24:41;;;;;;;0.93;0.93;;;20.10;73.50;;;;;;5022878;28;43402;-70
2022/10/17 08:27:11;;;;;;;0.80;0.80;;;20.10;73.60;;;;;;5015443;28;43980;-70
2022/10/17 08:29:39;;;;;;;1.10;1.10;;;20.00;74.00;;;;;;5017003;28;43553;-69
2022/10/17 08:32:08;;;;;;;0.97;0.97;;;20.00;74.00;;;;;;5022104;28;43380;-70
2022/10/17 08:34:38;;;;;;;1.00;1.00;;;20.00;74.00;;;;;;5021088;28;44030;-71
2022/10/17 08:37:06;;;;;;;1.00;1.00;;;20.00;73.80;;;;;;5021755;28;43669;-71
2022/10/17 08:39:34;;;;;;;0.90;0.90;;;20.00;73.90;;;;;;5015834;28;43458;-70
2022/10/17 08:42:14;;;;;;;1.13;1.13;;;20.00;74.10;;;;;;5018804;28;43417;-71
2022/10/17 08:44:48;;;;;;;1.10;1.10;;;20.00;74.40;;;;;;5012674;28;43601;-71
2022/10/17 08:47:19;;;;;;;1.00;1.00;;;20.10;74.10;;;;;;5011405;28;43654;-71
2022/10/17 08:49:51;;;;;;;1.00;1.00;;;20.20;73.60;;;;;;5024228;28;43547;-70
2022/10/17 08:52:22;;;;;;;0.90;0.90;;;20.40;73.10;;;;;;5018371;28;43427;-71
2022/10/17 08:54:50;;;;;;;1.00;1.00;;;20.40;72.70;;;;;;5025109;28;44484;-74
2022/10/17 08:57:18;;;;;;;1.13;0.83;;;20.50;72.70;;;;;;5028054;28;45775;-71
2022/10/17 08:59:49;;;;;;;0.90;0.90;;;20.40;72.70;;;;;;5026438;28;43503;-70
2022/10/17 09:02:34;;;;;;;0.90;0.90;;;20.30;72.80;;;;;;5011325;28;43406;-70
2022/10/17 09:05:27;;;;;;;1.00;1.00;;;20.20;73.20;;;;;;5017329;28;43375;-70
2022/10/17 09:08:00;;;;;;;0.90;0.90;;;20.20;73.60;;;;;;4994698;28;46199;-70
2022/10/17 09:10:31;;;;;;;1.10;1.10;;;20.20;73.60;;;;;;5026778;28;43526;-70
2022/10/17 09:13:07;;;;;;;0.93;0.93;;;20.10;73.60;;;;;;5020835;28;43354;-70
2022/10/17 09:15:41;;;;;;;1.10;1.10;;;20.10;73.70;;;;;;5025361;28;43927;-71
2022/10/17 09:18:11;;;;;;;0.93;0.93;;;20.00;74.00;;;;;;5015955;28;43545;-70
2022/10/17 09:20:43;;;;;;;0.90;0.90;;;20.10;74.20;;;;;;5019263;28;43449;-70
2022/10/17 09:23:13;;;;;;;1.03;1.03;;;20.00;74.00;;;;;;5013563;28;43419;-70
2022/10/17 09:25:42;;;;;;;0.90;0.90;;;20.10;74.10;;;;;;5014166;28;43977;-71
2022/10/17 09:28:14;;;;;;;0.87;0.87;;;20.00;74.10;;;;;;5018495;28;45386;-70
2022/10/17 09:30:43;;;;;;;0.97;0.97;;;20.00;74.30;;;;;;5014149;28;44280;-71
2022/10/17 09:33:14;;;;;;;0.90;0.90;;;20.00;74.50;;;;;;5016631;28;43480;-70
2022/10/17 09:36:04;;;;;;;0.90;0.90;;;20.10;74.30;;;;;;5012946;28;43292;-70
2022/10/17 09:38:37;;;;;;;1.07;1.07;;;20.20;73.80;;;;;;5017499;28;44120;-69
2022/10/17 09:41:06;;;;;;;1.03;1.00;;;20.40;73.20;;;;;;5013117;28;43457;-71
2022/10/17 09:43:54;;;;;;;0.90;0.90;;;20.40;72.70;;;;;;5023440;28;43407;-72
2022/10/17 09:46:25;;;;;;;1.10;1.10;;;20.50;72.80;;;;;;5024363;28;43474;-70
2022/10/17 09:48:55;;;;;;;1.00;1.00;;;20.40;73.00;;;;;;5021131;28;45915;-70
2022/10/17 09:51:25;;;;;;;0.90;0.90;;;20.30;73.20;;;;;;5014383;28;43425;-72
2022/10/17 09:53:55;;;;;;;0.93;0.93;;;20.30;73.50;;;;;;5017117;28;43418;-71
2022/10/17 09:56:23;;;;;;;0.90;0.90;;;20.20;73.50;;;;;;5015226;28;44087;-71
2022/10/17 09:58:53;;;;;;;1.00;1.00;;;20.20;73.70;;;;;;5021166;28;43855;-71
2022/10/17 10:01:22;;;;;;;1.03;1.03;;;20.20;73.80;;;;;;5017866;28;43971;-71
2022/10/17 10:04:09;;;;;;;1.00;1.00;;;20.20;74.00;;;;;;5010370;28;43410;-71
2022/10/17 10:06:38;;;;;;;0.90;0.90;;;20.10;74.00;;;;;;5017127;28;43427;-71
2022/10/17 10:09:07;;;;;;;1.03;1.03;;;20.10;74.80;;;;;;5023031;28;43865;-70
2022/10/17 10:11:45;;;;;;;1.00;1.00;;;20.10;74.10;;;;;;5008574;28;44391;-71
2022/10/17 10:14:17;;;;;;;1.00;1.00;;;20.10;74.10;;;;;;5016020;28;43949;-71
2022/10/17 10:16:46;;;;;;;0.90;0.90;;;20.10;74.20;;;;;;5022852;28;44227;-72
2022/10/17 10:19:20;;;;;;;1.17;1.17;;;20.10;74.30;;;;;;5012271;28;43853;-71
2022/10/17 10:21:55;;;;;;;0.90;0.90;;;20.10;74.30;;;;;;5021300;28;43391;-72
2022/10/17 10:24:24;;;;;;;1.00;1.00;;;20.20;74.00;;;;;;5010381;28;43469;-72
2022/10/17 10:26:58;;;;;;;0.93;0.93;;;20.30;73.60;;;;;;5022611;28;43838;-71
2022/10/17 10:29:29;;;;;;;1.00;1.00;;;20.50;73.10;;;;;;5017110;28;43857;-71
2022/10/17 10:32:07;;;;;;;1.00;1.00;;;20.50;72.70;;;;;;5025143;28;43482;-72
2022/10/17 10:34:35;;;;;;;1.07;1.07;;;20.50;72.80;;;;;;5019097;28;43428;-71
2022/10/17 10:37:05;;;;;;;1.00;1.00;;;20.50;73.10;;;;;;5012106;28;43586;-71
2022/10/17 10:39:40;;;;;;;1.00;1.00;;;20.40;73.30;;;;;;5021801;28;43620;-71
2022/10/17 10:42:16;;;;;;;1.10;1.10;;;20.30;73.50;;;;;;5026711;28;43434;-71
2022/10/17 10:44:44;;;;;;;0.90;0.90;;;20.30;73.50;;;;;;5011438;28;44035;-71
2022/10/17 10:47:21;;;;;;;1.00;1.00;;;20.30;73.70;;;;;;5025497;28;43429;-71
2022/10/17 10:49:51;;;;;;;0.93;0.93;;;20.30;73.90;;;;;;5028069;28;44023;-71
2022/10/17 10:52:31;;;;;;;0.90;0.90;;;20.20;74.00;;;;;;5013757;28;44087;-71
2022/10/17 10:55:04;;;;;;;1.00;1.00;;;20.20;74.10;;;;;;5018698;28;43414;-70
2022/10/17 10:57:33;;;;;;;0.90;0.90;;;20.20;74.10;;;;;;5008287;28;43532;-71
2022/10/17 11:00:04;;;;;;;0.90;0.90;;;20.20;74.20;;;;;;5017366;28;43810;-70
2022/10/17 11:02:35;;;;;;;1.20;1.20;;;20.20;74.30;;;;;;5018122;28;43444;-70
2022/10/17 11:05:04;;;;;;;1.20;1.20;;;20.20;74.40;;;;;;5021541;28;43436;-70
2022/10/17 11:07:35;;;;;;;0.90;0.90;;;20.10;74.30;;;;;;5012238;28;43511;-71
2022/10/17 11:10:07;;;;;;;1.00;1.00;;;20.20;74.30;;;;;;5018179;28;43615;-70
2022/10/17 11:12:36;;;;;;;1.10;1.10;;;20.20;74.60;;;;;;5019909;28;43432;-70
2022/10/17 11:15:09;;;;;;;1.00;1.00;;;20.40;73.60;;;;;;5013587;28;43434;-71
2022/10/17 11:17:39;;;;;;;1.20;1.20;;;20.50;72.90;;;;;;5019411;28;43496;-71
2022/10/17 11:20:13;;;;;;;1.17;1.17;;;20.60;72.70;;;;;;5027515;28;43763;-72
2022/10/17 11:22:45;;;;;;;1.10;1.10;;;20.60;72.80;;;;;;5013274;28;45103;-70
2022/10/17 11:25:29;;;;;;;1.20;1.20;;;20.50;73.00;;;;;;5020682;28;43447;-70
2022/10/17 11:27:57;;;;;;;1.20;1.20;;;20.40;73.30;;;;;;5023148;28;43368;-72
2022/10/17 11:30:37;;;;;;;1.53;1.43;;;20.40;73.60;;;;;;5013759;28;45125;-71
2022/10/17 11:33:05;;;;;;;1.10;1.10;;;20.30;73.60;;;;;;5025188;28;43506;-71
2022/10/17 11:35:35;;;;;;;1.40;1.40;;;20.30;73.80;;;;;;5017893;28;43427;-73
2022/10/17 11:38:08;;;;;;;1.30;1.30;;;20.30;73.90;;;;;;5021111;28;43519;-70
2022/10/17 11:40:36;;;;;;;1.20;1.20;;;20.20;74.00;;;;;;5020178;28;43903;-70
2022/10/17 11:43:06;;;;;;;1.80;1.70;;;20.20;74.10;;;;;;5015188;28;43461;-70
2022/10/17 11:45:46;;;;;;;1.90;1.80;;;20.20;74.10;;;;;;5017705;28;43506;-71
2022/10/17 11:48:16;;;;;;;1.90;1.80;;;20.20;74.30;;;;;;5015113;28;43420;-70
2022/10/17 11:50:46;;;;;;;1.80;1.70;;;20.20;74.40;;;;;;5020105;28;44149;-71
2022/10/17 11:53:49;;;;;;;1.80;1.60;;;20.20;74.50;;;;;;5009512;28;44866;-71
2022/10/17 11:56:19;;;;;;;1.70;1.60;;;20.20;74.50;;;;;;5020954;28;43396;-71
2022/10/17 11:58:50;;;;;;;1.67;1.57;;;20.20;74.40;;;;;;5020644;28;43393;-70
2022/10/17 12:01:22;;;;;;;1.80;1.70;;;20.20;74.10;;;;;;5022718;28;43851;-70
2022/10/17 12:04:01;;;;;;;1.83;1.70;;;20.40;73.70;;;;;;5022160;28;43485;-73
2022/10/17 12:06:39;;;;;;;1.60;1.60;;;20.50;73.20;;;;;;5012718;28;43432;-72
2022/10/17 12:09:11;;;;;;;1.70;1.60;;;20.50;72.90;;;;;;5017556;28;43406;-71
2022/10/17 12:11:49;;;;;;;1.90;1.80;;;20.50;73.20;;;;;;5016417;28;45859;-70
2022/10/17 12:14:41;;;;;;;1.70;1.60;;;20.50;73.40;;;;;;5010046;28;43402;-70
2022/10/17 12:17:25;;;;;;;1.60;1.60;;;20.40;73.70;;;;;;5021055;28;43406;-70
2022/10/17 12:19:53;;;;;;;1.70;1.60;;;20.40;73.70;;;;;;5009871;28;43858;-71
2022/10/17 12:22:22;;;;;;;1.87;1.70;;;20.30;73.80;;;;;;5024649;28;43899;-70
2022/10/17 12:24:56;;;;;;;1.80;1.70;;;20.30;74.00;;;;;;5012346;28;43447;-73
2022/10/17 12:27:35;;;;;;;1.77;1.67;;;20.30;74.10;;;;;;5015282;28;43343;-71
2022/10/17 12:30:05;;;;;;;2.13;1.47;;;20.20;74.10;;;;;;5012966;28;43443;-71
2022/10/17 12:32:33;;;;;;;1.67;1.57;;;20.20;74.10;;;;;;5016997;28;44841;-70
2022/10/17 12:35:22;;;;;;;1.50;1.50;;;20.20;74.10;;;;;;5011312;28;43464;-70
2022/10/17 12:38:02;;;;;;;2.00;1.80;;;20.20;74.20;;;;;;5016345;28;43943;-72
2022/10/17 12:40:57;;;;;;;1.70;1.60;;;20.20;74.20;;;;;;5018975;28;43445;-72
2022/10/17 12:43:36;;;;;;;1.53;1.43;;;20.20;74.40;;;;;;5010829;28;43678;-71
2022/10/17 12:46:10;;;;;;;1.50;1.50;;;20.20;74.30;;;;;;5013275;28;43508;-71
2022/10/17 12:49:04;;;;;;;1.77;1.67;;;20.20;74.00;;;;;;5018487;28;43436;-71
2022/10/17 12:52:04;;;;;;;1.40;1.40;;;20.40;73.50;;;;;;5009675;28;43542;-71
2022/10/17 12:54:34;;;;;;;1.50;1.50;;;20.50;73.00;;;;;;5024729;28;43799;-72
2022/10/17 12:57:23;;;;;;;1.50;1.50;;;20.60;72.90;;;;;;5015797;28;43418;-73
2022/10/17 12:59:52;;;;;;;1.40;1.40;;;20.50;73.10;;;;;;5014019;28;43397;-71
2022/10/17 13:02:25;;;;;;;1.47;1.47;;;20.50;73.30;;;;;;5020803;28;43501;-70
2022/10/17 13:04:59;;;;;;;1.50;1.50;;;20.40;73.50;;;;;;5011857;28;43947;-70
2022/10/17 13:07:26;;;;;;;1.80;1.80;;;20.40;73.70;;;;;;5016861;28;43386;-71
2022/10/17 13:09:55;;;;;;;1.33;1.33;;;20.40;73.70;;;;;;5021568;28;43571;-72
2022/10/17 13:12:25;;;;;;;1.50;1.50;;;20.40;73.90;;;;;;5017538;28;43500;-70